»·PEaware :: SWA3119 KDAL-KDEN

SWA3119 :: KDAL-KDEN

FLIGHT INFORMATION

Flight Status: Arrived
Operator:
Southwest Airlines
More flights by this operator :: More flights under this callsign
Pilot: Kevin M. (7)
Aircraft: BOEING 737-800
(B738)
More flights by this aircraft type
Origin: KDAL Dallas Love
United States
Destination: KDEN Denver Intl
United States
More flights between these airports :: More routes between these airports
Route: SWTSR3 ROLLS DRAWL HALEN BOSSS2
File this flight plan on PilotEdge
Remarks:
Altitude:
(Current/Filed)
36,000ft
Speed:
(Current/Filed)
470kts
Departed: 04-Sep-18 10:23 AM
Arrived: 04-Sep-18 11:51 AM
Distance/Time
Traveled:
565nm/1:28
Distance/Time
To Go:
Arrived

Flight Plot

Page will automatically refresh every two minutes.

Flight plan parsing failed; only flown route is shown


Map Options




Map Legend


Flown Route
Filed Route
Departure Airport
Arrival Airport
Navaid (VOR, NDB)
Fix

Horizontal Profiles

Position Reports

Time Latitude Longitude Heading Altitude Ground
Speed
04-Sep-18 10:05 32.846541 -96.848890 180 493ft 0kts
04-Sep-18 10:06 32.846541 -96.848890 180 493ft 0kts
04-Sep-18 10:07 32.846541 -96.848890 180 493ft 0kts
04-Sep-18 10:08 32.846541 -96.848890 180 493ft 0kts
04-Sep-18 10:09 32.846541 -96.848890 180 493ft 0kts
04-Sep-18 10:10 32.846541 -96.848890 180 493ft 0kts
04-Sep-18 10:11 32.846541 -96.848890 181 493ft 0kts
04-Sep-18 10:12 32.846541 -96.848890 180 493ft 0kts
04-Sep-18 10:13 32.846541 -96.848890 180 493ft 0kts
04-Sep-18 10:14 32.846541 -96.848890 180 493ft 0kts
04-Sep-18 10:15 32.846541 -96.848890 180 493ft 0kts
04-Sep-18 10:16 32.846581 -96.848889 181 494ft 2kts
04-Sep-18 10:17 32.847000 -96.849212 99 494ft 2kts
04-Sep-18 10:18 32.847004 -96.849342 90 493ft 0kts
04-Sep-18 10:19 32.847004 -96.849342 90 493ft 0kts
04-Sep-18 10:20 32.847601 -96.846873 10 494ft 0kts
04-Sep-18 10:21 32.849856 -96.848275 316 493ft 35kts
04-Sep-18 10:22 32.854488 -96.856367 317 493ft 36kts
04-Sep-18 10:23 32.856799 -96.856261 132 493ft 2kts
04-Sep-18 10:24 32.835434 -96.831458 135 1243ft 163kts
04-Sep-18 10:25 32.797354 -96.787651 137 2979ft 225kts
04-Sep-18 10:26 32.744380 -96.734649 136 5326ft 266kts
04-Sep-18 10:27 32.691504 -96.671796 125 8291ft 276kts
04-Sep-18 10:28 32.680463 -96.580130 87 10552ft 308kts
04-Sep-18 10:29 32.747115 -96.509395 16 11540ft 385kts
04-Sep-18 10:30 32.855666 -96.518941 339 13256ft 416kts
04-Sep-18 10:31 32.963524 -96.569612 338 15354ft 427kts
04-Sep-18 10:32 33.073599 -96.621605 337 17235ft 439kts
04-Sep-18 10:33 33.177156 -96.670667 337 18946ft 446kts
04-Sep-18 10:34 33.292785 -96.725643 337 20679ft 455kts
04-Sep-18 10:35 33.410781 -96.781913 337 22288ft 464kts
04-Sep-18 10:36 33.531221 -96.839520 337 23772ft 472kts
04-Sep-18 10:37 33.653833 -96.898348 337 25183ft 480kts
04-Sep-18 10:38 33.769060 -96.974736 313 26473ft 484kts
04-Sep-18 10:39 33.863373 -97.090612 312 27552ft 495kts
04-Sep-18 10:40 33.959340 -97.209450 312 28796ft 500kts
04-Sep-18 10:41 34.054972 -97.328298 312 30358ft 496kts
04-Sep-18 10:42 34.147484 -97.443665 311 31732ft 491kts
04-Sep-18 10:43 34.241569 -97.561399 311 32969ft 487kts
04-Sep-18 10:44 34.333289 -97.676563 311 34050ft 483kts
04-Sep-18 10:45 34.425750 -97.793061 311 34128ft 481kts
04-Sep-18 10:46 34.518461 -97.910284 311 34128ft 481kts
04-Sep-18 10:47 34.610520 -98.027087 311 34126ft 481kts
04-Sep-18 10:48 34.702175 -98.143777 311 34116ft 482kts
04-Sep-18 10:49 34.794245 -98.261395 311 34106ft 481kts
04-Sep-18 10:50 34.886004 -98.379026 311 34108ft 481kts
04-Sep-18 10:51 34.977548 -98.496763 310 34106ft 482kts
04-Sep-18 10:52 35.069517 -98.615464 310 34115ft 483kts
04-Sep-18 10:53 35.155801 -98.727215 309 34113ft 483kts
04-Sep-18 10:54 35.247473 -98.846343 309 34113ft 482kts
04-Sep-18 10:55 35.339008 -98.965678 309 34110ft 484kts
04-Sep-18 10:56 35.430640 -99.085538 308 34108ft 484kts
04-Sep-18 10:57 35.522113 -99.205667 307 34106ft 484kts
04-Sep-18 10:58 35.613398 -99.326011 307 34102ft 484kts
04-Sep-18 10:59 35.704535 -99.446572 307 34100ft 484kts
04-Sep-18 11:00 35.800029 -99.563467 311 34101ft 486kts
04-Sep-18 11:01 35.894773 -99.677960 309 34110ft 485kts
04-Sep-18 11:02 35.990004 -99.794853 309 34115ft 485kts
04-Sep-18 11:03 36.084940 -99.911388 310 34114ft 487kts
04-Sep-18 11:04 36.178497 -100.026083 310 34106ft 486kts
04-Sep-18 11:05 36.274241 -100.143354 310 34103ft 486kts
04-Sep-18 11:07 36.370614 -100.261264 310 34100ft 486kts
04-Sep-18 11:08 36.466733 -100.378735 310 34120ft 486kts
04-Sep-18 11:09 36.563110 -100.496394 310 34126ft 486kts
04-Sep-18 11:10 36.659396 -100.613814 310 34126ft 486kts
04-Sep-18 11:11 36.754989 -100.730248 310 34128ft 486kts
04-Sep-18 11:12 36.851584 -100.847785 310 34123ft 486kts
04-Sep-18 11:13 36.948606 -100.965730 310 34124ft 488kts
04-Sep-18 11:14 37.045625 -101.083550 310 34125ft 492kts
04-Sep-18 11:15 37.142984 -101.201663 310 34114ft 495kts
04-Sep-18 11:16 37.241735 -101.321346 310 34114ft 495kts
04-Sep-18 11:17 37.340146 -101.440508 310 34109ft 495kts
04-Sep-18 11:18 37.439025 -101.560138 310 34099ft 495kts
04-Sep-18 11:19 37.531754 -101.682086 303 34085ft 490kts
04-Sep-18 11:20 37.618863 -101.813402 304 34087ft 490kts
04-Sep-18 11:21 37.706566 -101.944767 304 34090ft 490kts
04-Sep-18 11:22 37.794199 -102.076248 304 34090ft 490kts
04-Sep-18 11:23 37.884676 -102.205353 307 34100ft 493kts
04-Sep-18 11:24 37.977920 -102.331759 307 34659ft 493kts
04-Sep-18 11:25 38.071050 -102.458477 307 35746ft 490kts
04-Sep-18 11:26 38.162538 -102.583469 307 36092ft 487kts
04-Sep-18 11:27 38.244566 -102.695979 306 36098ft 487kts
04-Sep-18 11:28 38.336228 -102.822139 306 36099ft 487kts
04-Sep-18 11:29 38.427896 -102.948829 306 36099ft 486kts
04-Sep-18 11:30 38.519594 -103.076116 306 36111ft 491kts
04-Sep-18 11:31 38.606636 -103.197035 305 36141ft 446kts
04-Sep-18 11:32 38.690923 -103.315112 305 36176ft 451kts
04-Sep-18 11:33 38.776134 -103.434765 306 33536ft 462kts
04-Sep-18 11:34 38.862125 -103.555969 306 30191ft 466kts
04-Sep-18 11:35 38.945260 -103.673673 306 27499ft 444kts
04-Sep-18 11:36 39.024880 -103.786840 308 25262ft 413kts
04-Sep-18 11:37 39.098741 -103.892258 309 23220ft 382kts
04-Sep-18 11:38 39.165195 -103.987401 310 21407ft 357kts
04-Sep-18 11:39 39.229285 -104.079428 311 19686ft 336kts
04-Sep-18 11:40 39.274165 -104.179114 288 18037ft 323kts
04-Sep-18 11:41 39.298587 -104.288282 289 16326ft 317kts
04-Sep-18 11:42 39.318869 -104.379094 289 15037ft 310kts
04-Sep-18 11:43 39.342072 -104.483178 289 13606ft 303kts
04-Sep-18 11:44 39.365129 -104.586652 292 12120ft 293kts
04-Sep-18 11:45 39.406705 -104.655990 333 12077ft 254kts
04-Sep-18 11:46 39.472298 -104.669193 8 12040ft 243kts
04-Sep-18 11:47 39.534710 -104.643581 344 11303ft 251kts
04-Sep-18 11:48 39.604099 -104.660592 357 9936ft 261kts
04-Sep-18 11:49 39.677000 -104.662435 0 8470ft 253kts
04-Sep-18 11:50 39.741406 -104.661558 2 7169ft 209kts
04-Sep-18 11:51 39.789453 -104.661018 2 6176ft 158kts
04-Sep-18 11:52 39.832883 -104.660480 0 5439ft 150kts
04-Sep-18 11:53 39.853286 -104.661872 332 5439ft 32kts
04-Sep-18 11:54 39.860990 -104.662785 283 5439ft 21kts
04-Sep-18 11:55 39.861322 -104.671592 270 5439ft 26kts
04-Sep-18 11:56 39.862530 -104.676313 18 5439ft 0kts
04-Sep-18 11:57 39.862529 -104.676313 18 5439ft 0kts
04-Sep-18 11:58 39.862529 -104.676313 18 5439ft 0kts
04-Sep-18 11:59 39.862529 -104.676313 18 5439ft 0kts
04-Sep-18 12:00 39.862529 -104.676313 18 5439ft 0kts
04-Sep-18 12:01 39.862529 -104.676313 18 5439ft 0kts
04-Sep-18 12:02 39.862529 -104.676313 18 5439ft 0kts
04-Sep-18 12:03 39.862529 -104.676313 18 5439ft 0kts
04-Sep-18 12:04 39.862529 -104.676313 18 5439ft 0kts
04-Sep-18 12:05 39.862529 -104.676313 18 5439ft 0kts
04-Sep-18 12:06 39.862529 -104.676313 18 5439ft 0kts
04-Sep-18 12:07 39.862529 -104.676313 18 5439ft 0kts

Navigation Log

Ident Type
Flight plan parsing failed, navigation log unavailable